Time;durP1;ratioP1;P1;durP2;ratioP2;P2;SDS_P1;SDS_P2;PMS_P1;PMS_P2;Temp;Humidity;BMP_temperature;BMP_pressure;BME280_temperature;BME280_humidity;BME280_pressure;Samples;Min_cycle;Max_cycle;Signal;HPM_P1;HPM_P2
2023/04/01 00:00:51;;;;;;;26.90;13.90;;;;;;;16.27;50.01;91967.78;4958850;28;20620;-86
2023/04/01 00:03:17;;;;;;;25.33;13.52;;;;;;;16.25;49.77;91973.03;4959558;28;20042;-86
2023/04/01 00:05:43;;;;;;;23.83;13.52;;;;;;;16.26;50.09;91982.66;4960246;28;20049;-86
2023/04/01 00:08:11;;;;;;;27.67;14.50;;;;;;;16.24;50.19;91981.75;4959924;28;20050;-86
2023/04/01 00:10:36;;;;;;;27.00;13.95;;;;;;;16.26;50.21;91985.41;4962117;28;20037;-86
2023/04/01 00:13:01;;;;;;;25.67;14.45;;;;;;;16.28;49.88;91969.25;4952741;28;20050;-86
2023/04/01 00:15:27;;;;;;;24.73;13.05;;;;;;;16.29;50.18;91987.06;5012089;28;20052;-86
2023/04/01 00:17:54;;;;;;;25.40;13.68;;;;;;;16.26;50.16;91988.13;4966260;28;20034;-86
2023/04/01 00:20:20;;;;;;;22.45;13.43;;;;;;;16.28;50.28;91995.78;4982756;28;20061;-86
2023/04/01 00:22:45;;;;;;;26.92;14.23;;;;;;;16.27;49.99;91997.78;4973812;28;20046;-86
2023/04/01 00:25:11;;;;;;;20.02;13.20;;;;;;;16.26;49.88;91999.03;4970200;28;20037;-85
2023/04/01 00:27:36;;;;;;;20.55;12.82;;;;;;;16.29;50.29;92008.16;4965051;28;20047;-86
2023/04/01 00:30:02;;;;;;;23.35;13.40;;;;;;;16.29;50.04;92005.41;4947500;28;20031;-86
2023/04/01 00:32:27;;;;;;;22.38;12.65;;;;;;;16.25;50.14;92011.19;4938180;28;20085;-86
2023/04/01 00:34:53;;;;;;;23.15;13.02;;;;;;;16.27;49.97;92010.66;4963916;28;20030;-85
2023/04/01 00:37:20;;;;;;;25.02;13.25;;;;;;;16.28;50.09;92009.41;4964712;28;20054;-86
2023/04/01 00:39:46;;;;;;;26.33;13.15;;;;;;;16.25;49.82;92019.38;4966624;28;20039;-86
2023/04/01 00:42:12;;;;;;;21.48;13.13;;;;;;;16.25;49.67;92018.66;4956172;28;20042;-86
2023/04/01 00:44:38;;;;;;;22.33;12.90;;;;;;;16.23;50.13;92005.56;4994312;28;20102;-85
2023/04/01 00:47:04;;;;;;;19.30;11.68;;;;;;;16.25;49.96;92016.66;4964568;28;20042;-86
2023/04/01 00:49:30;;;;;;;19.00;12.73;;;;;;;16.25;50.16;92024.09;4970592;28;20035;-86
2023/04/01 00:51:57;;;;;;;26.45;12.85;;;;;;;16.26;49.68;92023.56;4980249;28;20030;-85
2023/04/01 00:54:23;;;;;;;23.42;12.30;;;;;;;16.24;50.07;92025.38;4948010;28;20088;-86
2023/04/01 00:56:57;;;;;;;18.45;11.25;;;;;;;16.22;49.91;92020.47;4967480;28;20084;-86
2023/04/01 00:59:30;;;;;;;22.30;12.32;;;;;;;16.23;50.00;92021.19;5002097;28;20052;-86
2023/04/01 01:01:55;;;;;;;18.60;10.75;;;;;;;16.20;50.17;92030.44;4997774;28;20038;-86
2023/04/01 01:04:26;;;;;;;22.23;11.85;;;;;;;16.19;50.22;92026.25;4979545;28;20793;-86
2023/04/01 01:07:29;;;;;;;24.45;13.13;;;;;;;16.23;50.13;92023.91;4981516;28;20061;-87
2023/04/01 01:10:23;;;;;;;23.05;11.93;;;;;;;16.25;49.90;92018.66;5013684;28;20720;-86
2023/04/01 01:13:05;;;;;;;22.65;11.60;;;;;;;16.29;49.88;92022.50;4980721;28;20034;-87
2023/04/01 01:16:08;;;;;;;23.17;12.38;;;;;;;16.25;49.95;92018.66;5001574;28;20041;-86
2023/04/01 01:18:42;;;;;;;21.45;11.60;;;;;;;16.25;50.03;92013.19;5010192;28;20117;-85
2023/04/01 01:21:29;;;;;;;25.65;13.18;;;;;;;16.23;50.11;92010.28;4997602;28;20241;-86
2023/04/01 01:24:37;;;;;;;21.13;11.25;;;;;;;16.21;50.05;92004.63;5026141;28;20068;-85
2023/04/01 01:27:05;;;;;;;22.23;11.75;;;;;;;16.23;49.68;92000.13;4892381;29;20040;-87
2023/04/01 01:29:36;;;;;;;19.75;10.88;;;;;;;16.26;49.82;92001.03;4902401;29;20058;-86
2023/04/01 01:32:03;;;;;;;;;;;;;;;16.26;49.58;91999.03;4918333;29;20127;-86
2023/04/01 01:34:49;;;;;;;19.20;10.70;;;;;;;16.23;49.79;91993.94;4898091;29;20034;-86
2023/04/01 01:37:16;;;;;;;17.05;10.30;;;;;;;16.20;49.88;91987.53;4891603;29;20037;-86
2023/04/01 01:39:42;;;;;;;20.95;11.45;;;;;;;16.20;49.78;91986.81;4900348;29;20132;-86
2023/04/01 01:42:09;;;;;;;17.90;10.65;;;;;;;16.25;49.83;91983.19;4892059;29;20045;-86
2023/04/01 01:44:35;;;;;;;19.58;11.20;;;;;;;16.21;49.70;91977.38;4894006;29;20116;-86
2023/04/01 01:47:00;;;;;;;20.35;11.15;;;;;;;16.16;49.76;91980.94;4881467;29;20044;-86
2023/04/01 01:49:26;;;;;;;17.33;9.98;;;;;;;16.18;49.98;91973.69;4879726;29;20051;-86
2023/04/01 01:51:52;;;;;;;20.25;10.48;;;;;;;16.15;50.04;91977.50;4881846;29;20131;-85
2023/04/01 01:54:18;;;;;;;19.17;11.85;;;;;;;16.23;49.84;91974.84;4897692;29;20067;-86
2023/04/01 01:56:45;;;;;;;19.80;10.90;;;;;;;16.17;49.78;91983.16;4858375;29;20057;-86
2023/04/01 01:59:10;;;;;;;17.42;10.57;;;;;;;16.18;49.76;91986.59;4854944;29;20045;-86
2023/04/01 02:01:38;;;;;;;19.73;10.38;;;;;;;16.19;49.78;91988.06;4852603;29;20045;-86
2023/04/01 02:04:04;;;;;;;18.30;11.10;;;;;;;16.16;50.06;91981.69;4920708;29;20049;-86
2023/04/01 02:06:31;;;;;;;16.65;9.93;;;;;;;16.17;49.80;91982.41;4937311;29;20047;-87
2023/04/01 02:08:59;;;;;;;18.15;11.10;;;;;;;16.14;50.01;91992.38;4937552;29;20051;-86
2023/04/01 02:11:30;;;;;;;18.55;10.63;;;;;;;16.19;50.06;91990.78;4921274;29;20319;-86
2023/04/01 02:13:56;;;;;;;;;;;;;;;16.23;49.68;91988.47;4924814;29;20047;-87
2023/04/01 02:16:31;;;;;;;16.38;9.80;;;;;;;16.18;49.81;91992.78;4956841;29;19943;-86
2023/04/01 02:18:57;;;;;;;15.15;9.48;;;;;;;16.17;49.99;91980.41;4946597;29;20054;-87
2023/04/01 02:21:24;;;;;;;16.67;10.27;;;;;;;16.20;49.73;91984.09;4922681;29;20047;-86
2023/04/01 02:23:50;;;;;;;15.77;9.10;;;;;;;16.16;49.91;91978.22;4923535;29;20138;-86
2023/04/01 02:26:15;;;;;;;18.13;10.43;;;;;;;16.16;49.53;91978.94;4904790;29;20126;-86
2023/04/01 02:28:42;;;;;;;18.98;9.90;;;;;;;16.20;49.81;91965.00;4959069;28;20420;-86
2023/04/01 02:31:09;;;;;;;18.15;10.60;;;;;;;16.17;49.71;91955.88;4963932;28;20753;-86
2023/04/01 02:33:35;;;;;;;17.60;9.43;;;;;;;16.19;49.58;91958.81;4967608;28;20146;-86
2023/04/01 02:36:00;;;;;;;17.10;9.73;;;;;;;16.19;49.75;91969.72;4962955;28;20725;-86
2023/04/01 02:38:26;;;;;;;14.60;9.27;;;;;;;16.18;49.46;91957.34;4974523;28;20046;-87
2023/04/01 02:40:56;;;;;;;17.05;9.85;;;;;;;16.23;49.68;91967.41;4959485;28;20098;-86
2023/04/01 02:43:22;;;;;;;14.35;8.75;;;;;;;16.20;49.56;91978.63;4953205;28;20050;-87
2023/04/01 02:45:47;;;;;;;15.20;9.77;;;;;;;16.16;49.48;91986.41;4962890;28;20042;-86
2023/04/01 02:48:13;;;;;;;17.40;9.65;;;;;;;16.18;49.71;91990.06;4978449;28;20084;-86
2023/04/01 02:50:39;;;;;;;16.55;9.68;;;;;;;16.20;49.61;91984.09;4962997;28;20378;-87
2023/04/01 02:53:06;;;;;;;15.27;8.88;;;;;;;16.19;49.87;91979.88;4971814;28;20034;-86
2023/04/01 02:55:32;;;;;;;17.67;9.43;;;;;;;16.19;49.67;91969.72;4980411;28;20054;-86
2023/04/01 02:57:58;;;;;;;16.92;8.77;;;;;;;16.22;49.55;91973.38;4978958;28;20075;-86
2023/04/01 03:00:23;;;;;;;13.88;8.88;;;;;;;16.21;49.39;91972.66;4996348;28;20038;-86
2023/04/01 03:02:49;;;;;;;13.80;8.80;;;;;;;16.21;49.40;91977.38;4975512;28;20104;-86
2023/04/01 03:05:14;;;;;;;12.50;8.75;;;;;;;16.22;49.29;91976.09;4957052;28;20038;-86
2023/04/01 03:07:42;;;;;;;13.80;8.45;;;;;;;16.14;49.55;91981.47;4977364;28;20109;-86
2023/04/01 03:10:08;;;;;;;14.50;8.82;;;;;;;16.17;49.66;91985.13;4984285;28;20042;-86
2023/04/01 03:12:33;;;;;;;14.73;9.07;;;;;;;16.13;49.71;91977.28;4974149;28;20063;-87
2023/04/01 03:14:59;;;;;;;17.67;8.48;;;;;;;16.11;49.92;91985.25;4967904;28;20035;-86
2023/04/01 03:17:24;;;;;;;15.45;8.85;;;;;;;16.12;49.76;91986.72;4973833;28;20046;-86
2023/04/01 03:19:50;;;;;;;11.43;7.78;;;;;;;16.11;49.92;91983.25;4991595;28;20049;-86
2023/04/01 03:22:15;;;;;;;13.80;8.27;;;;;;;16.16;49.74;91980.94;4969600;28;20108;-86
2023/04/01 03:24:41;;;;;;;13.57;7.60;;;;;;;16.15;49.64;91982.22;4974637;28;20042;-86
2023/04/01 03:27:06;;;;;;;11.60;7.45;;;;;;;16.11;49.57;91986.00;4983328;28;20043;-86
2023/04/01 03:29:31;;;;;;;15.82;8.35;;;;;;;16.13;49.50;91990.91;4990472;28;20031;-87
2023/04/01 03:31:59;;;;;;;15.30;8.25;;;;;;;16.13;49.61;91993.63;4975616;28;20061;-86
2023/04/01 03:34:25;;;;;;;14.43;8.18;;;;;;;16.13;49.52;91990.19;4957334;28;20061;-86
2023/04/01 03:36:52;;;;;;;10.85;7.18;;;;;;;16.16;49.45;91998.03;4969202;23;20034;-86
2023/04/01 03:39:18;;;;;;;16.77;8.95;;;;;;;16.10;49.91;91992.69;5015141;28;20080;-86
2023/04/01 03:41:45;;;;;;;12.45;7.60;;;;;;;16.11;49.46;92001.63;5000111;28;20097;-86
2023/04/01 03:44:10;;;;;;;13.25;7.60;;;;;;;16.15;49.88;92001.28;5010072;28;20124;-86
2023/04/01 03:46:36;;;;;;;12.70;8.02;;;;;;;16.16;49.71;92002.75;5012615;28;20037;-86
2023/04/01 03:49:01;;;;;;;18.02;8.13;;;;;;;16.17;49.62;92012.41;4998286;28;20107;-87
2023/04/01 03:51:27;;;;;;;13.68;7.90;;;;;;;16.17;49.69;92006.94;4984119;28;20133;-86
2023/04/01 03:53:53;;;;;;;14.45;8.13;;;;;;;16.15;49.57;92006.75;4996682;28;20397;-86
2023/04/01 03:56:19;;;;;;;11.63;7.35;;;;;;;16.12;49.77;92013.97;4987403;28;20037;-86
2023/04/01 03:58:50;;;;;;;16.02;8.25;;;;;;;16.15;49.27;92017.66;5002848;28;20447;-86
2023/04/01 04:01:20;;;;;;;12.88;7.13;;;;;;;16.09;49.65;92026.69;5002128;28;20041;-86
2023/04/01 04:03:46;;;;;;;10.57;7.03;;;;;;;16.14;49.36;92029.81;5003564;28;20041;-86
2023/04/01 04:06:13;;;;;;;13.82;7.78;;;;;;;16.14;49.64;92033.28;4987167;28;20029;-86
2023/04/01 04:08:39;;;;;;;13.95;7.90;;;;;;;16.15;49.61;92023.09;5019969;28;20068;-86
2023/04/01 04:11:05;;;;;;;16.83;7.68;;;;;;;16.16;49.38;92033.47;5004310;28;20033;-88
2023/04/01 04:13:30;;;;;;;10.73;7.25;;;;;;;16.14;49.61;92038.72;4997783;28;20037;-86
2023/04/01 04:15:55;;;;;;;12.88;7.65;;;;;;;16.13;49.65;92041.97;5003251;28;20065;-86
2023/04/01 04:18:21;;;;;;;11.73;7.57;;;;;;;16.14;49.35;92041.44;5002089;28;20044;-86
2023/04/01 04:20:48;;;;;;;13.20;7.82;;;;;;;16.06;49.80;92033.19;5005867;28;20038;-87
2023/04/01 04:23:14;;;;;;;11.18;7.30;;;;;;;16.09;49.51;92040.31;5005219;28;20067;-86
2023/04/01 04:25:40;;;;;;;14.98;7.65;;;;;;;16.11;49.65;92051.41;5004161;28;20041;-86
2023/04/01 04:28:14;;;;;;;13.32;7.65;;;;;;;16.15;49.56;92048.38;5003462;28;20040;-87
2023/04/01 04:30:39;;;;;;;11.23;7.53;;;;;;;16.13;49.69;92048.16;5037093;28;20048;-87
2023/04/01 04:33:14;;;;;;;8.88;5.88;;;;;;;16.11;49.32;92053.41;5004677;28;20038;-86
2023/04/01 04:35:40;;;;;;;15.10;7.43;;;;;;;16.09;49.44;92053.94;5038162;28;20072;-87
2023/04/01 04:38:05;;;;;;;11.10;6.75;;;;;;;16.11;49.24;92056.13;5000523;28;20045;-86
2023/04/01 04:40:31;;;;;;;11.73;6.97;;;;;;;16.14;49.55;92055.09;5000484;28;20034;-86
2023/04/01 04:42:57;;;;;;;11.27;7.30;;;;;;;16.08;49.45;92059.91;5000189;28;20045;-86
2023/04/01 04:45:23;;;;;;;10.30;6.65;;;;;;;16.10;49.52;92057.41;4977997;28;20054;-86
2023/04/01 04:47:48;;;;;;;11.18;6.68;;;;;;;16.10;49.56;92052.69;4953052;28;20398;-86
2023/04/01 04:50:13;;;;;;;12.25;7.22;;;;;;;16.08;49.70;92057.91;4947389;28;20058;-86
2023/04/01 04:52:39;;;;;;;14.07;6.93;;;;;;;16.09;49.56;92056.66;4962714;28;20669;-87
2023/04/01 04:55:05;;;;;;;10.05;6.90;;;;;;;16.13;49.82;92058.34;4962181;28;20038;-86
2023/04/01 04:57:31;;;;;;;10.35;6.68;;;;;;;16.14;49.31;92059.81;4983553;28;20058;-86
2023/04/01 04:59:57;;;;;;;10.40;6.38;;;;;;;16.09;49.31;92045.75;4960014;28;20042;-86
2023/04/01 05:02:23;;;;;;;11.43;6.50;;;;;;;16.11;49.17;92059.59;4962192;28;20046;-86
2023/04/01 05:04:48;;;;;;;12.00;6.80;;;;;;;16.12;49.56;92054.88;4962384;28;20049;-84
2023/04/01 05:07:14;;;;;;;10.93;6.97;;;;;;;16.14;49.50;92054.34;4961564;28;20576;-86
2023/04/01 05:09:39;;;;;;;10.27;6.57;;;;;;;16.12;49.36;92049.41;4967998;28;20437;-86
2023/04/01 05:12:05;;;;;;;12.50;6.93;;;;;;;16.09;49.67;92056.66;4946073;28;20074;-86
2023/04/01 05:14:32;;;;;;;9.70;6.22;;;;;;;16.10;49.70;92057.41;4927869;29;20063;-86
2023/04/01 05:16:57;;;;;;;11.50;6.72;;;;;;;16.07;49.48;92044.81;4937206;29;20042;-86
2023/04/01 05:19:22;;;;;;;10.38;6.38;;;;;;;16.10;49.65;92054.66;4935103;29;20114;-85
2023/04/01 05:21:48;;;;;;;10.32;6.38;;;;;;;16.11;49.62;92053.41;4920205;29;20062;-86
2023/04/01 05:34:18;;;;;;;10.75;6.25;;;;;;;16.12;49.38;92057.59;4968662;28;20151;-86
2023/04/01 05:36:44;;;;;;;8.43;6.35;;;;;;;16.07;49.55;92045.56;4958778;28;20042;-86
2023/04/01 05:39:10;;;;;;;9.18;6.25;;;;;;;16.07;49.34;92050.28;4956903;28;20090;-86
2023/04/01 05:41:36;;;;;;;10.88;6.45;;;;;;;16.10;49.45;92049.22;4958350;28;20031;-86
2023/04/01 05:44:01;;;;;;;8.52;5.55;;;;;;;16.10;49.33;92043.75;4909857;29;20149;-85
2023/04/01 05:46:27;;;;;;;8.75;5.57;;;;;;;16.10;49.38;92051.94;4902380;29;20036;-86
2023/04/01 05:48:52;;;;;;;8.50;6.15;;;;;;;16.06;49.48;92052.25;4871154;29;20059;-86
2023/04/01 05:51:19;;;;;;;7.88;5.22;;;;;;;16.12;49.35;92057.59;4905096;29;20040;-87
2023/04/01 05:53:44;;;;;;;8.32;5.75;;;;;;;16.04;49.49;92051.31;4919992;29;20111;-87
2023/04/01 05:56:10;;;;;;;8.02;6.10;;;;;;;16.09;49.34;92058.66;4916090;29;20068;-86
2023/04/01 05:58:36;;;;;;;7.65;5.57;;;;;;;16.07;49.40;92058.44;4930418;29;20089;-85
2023/04/01 06:01:07;;;;;;;9.00;5.88;;;;;;;16.08;49.33;92062.63;4937919;29;20057;-86
2023/04/01 06:03:33;;;;;;;9.05;5.78;;;;;;;16.09;49.59;92058.66;4923681;29;20095;-86
2023/04/01 06:06:00;;;;;;;10.32;6.32;;;;;;;16.08;49.33;92059.91;4937363;29;20040;-86
2023/04/01 06:08:26;;;;;;;8.70;5.47;;;;;;;16.10;49.22;92057.41;4934770;29;20048;-85
2023/04/01 06:11:01;;;;;;;7.28;5.18;;;;;;;16.13;49.16;92059.06;4916495;29;20044;-87
2023/04/01 06:13:48;;;;;;;9.05;5.53;;;;;;;16.10;49.23;92057.41;4935114;29;20044;-86
2023/04/01 06:16:39;;;;;;;9.00;5.45;;;;;;;16.10;49.39;92058.13;4973200;28;20047;-86
2023/04/01 06:19:10;;;;;;;;;;;;;;;16.15;49.37;92055.81;4971836;28;20145;-88
2023/04/01 06:21:48;;;;;;;9.93;5.85;;;;;;;16.12;49.23;92057.59;4957394;28;19965;-86
2023/04/01 06:24:41;;;;;;;9.43;5.32;;;;;;;16.10;49.57;92055.41;5030832;28;20538;-86
2023/04/01 06:27:35;;;;;;;8.85;5.10;;;;;;;16.10;49.53;92060.13;5019658;28;20134;-86
2023/04/01 06:30:35;;;;;;;7.30;4.63;;;;;;;16.13;49.11;92061.06;5033971;28;20141;-86
2023/04/01 06:33:07;;;;;;;6.18;4.88;;;;;;;16.09;49.24;92053.94;5021404;28;20403;-86
2023/04/01 06:35:54;;;;;;;9.07;5.65;;;;;;;16.11;49.41;92067.03;5019006;28;20064;-89
2023/04/01 06:38:38;;;;;;;7.43;5.55;;;;;;;16.10;49.43;92060.13;5042841;28;20120;-85
2023/04/01 06:41:32;;;;;;;9.75;5.20;;;;;;;16.11;49.18;92067.03;5038853;28;20108;-86
2023/04/01 06:44:35;;;;;;;8.65;5.18;;;;;;;16.12;49.48;92068.50;5026346;28;20037;-88
2023/04/01 06:47:46;;;;;;;7.57;4.57;;;;;;;16.10;49.44;92068.28;5058503;28;20057;-86
2023/04/01 06:50:30;;;;;;;7.13;4.63;;;;;;;16.13;49.28;92067.25;4989995;28;20863;-86
2023/04/01 06:53:10;;;;;;;7.88;4.50;;;;;;;16.13;49.11;92069.25;4983563;28;20045;-89
2023/04/01 06:55:47;;;;;;;11.32;4.90;;;;;;;16.13;49.25;92071.97;4969729;28;20037;-89
2023/04/01 06:58:22;;;;;;;14.45;5.95;;;;;;;16.09;49.23;92078.47;4984131;28;20045;-86
2023/04/01 07:00:50;;;;;;;12.00;5.00;;;;;;;16.13;49.08;92077.41;4964417;28;20042;-88
2023/04/01 07:03:37;;;;;;;9.40;5.00;;;;;;;16.14;49.06;92081.63;4991555;28;20655;-87
2023/04/01 07:06:09;;;;;;;12.48;5.30;;;;;;;16.19;49.19;92070.59;4998594;28;20053;-86
2023/04/01 07:08:36;;;;;;;10.73;4.70;;;;;;;16.15;48.92;92089.25;4979133;23;20063;-86
2023/04/01 07:11:06;;;;;;;11.55;5.10;;;;;;;16.14;49.15;92074.16;4965669;28;20042;-86
2023/04/01 07:13:39;;;;;;;8.40;5.05;;;;;;;16.15;49.26;92085.81;4990380;28;20076;-86
2023/04/01 07:16:10;;;;;;;11.60;5.25;;;;;;;16.11;49.27;92086.84;4999718;28;20065;-86
2023/04/01 07:19:00;;;;;;;7.88;4.95;;;;;;;16.15;49.02;92083.81;4998328;28;20490;-86
2023/04/01 07:21:35;;;;;;;9.82;4.88;;;;;;;16.17;49.28;92084.03;4994426;28;20452;-86
2023/04/01 07:24:06;;;;;;;9.18;5.20;;;;;;;16.14;49.10;92085.06;4967420;28;20038;-86
2023/04/01 07:26:31;;;;;;;8.57;4.40;;;;;;;16.17;49.26;92084.03;4980839;28;20034;-86
2023/04/01 07:28:56;;;;;;;12.15;5.05;;;;;;;16.14;49.30;92079.63;4977440;28;20057;-86
2023/04/01 07:31:51;;;;;;;12.88;4.28;;;;;;;16.20;48.98;92079.50;4980388;28;20054;-86
2023/04/01 07:34:26;;;;;;;14.60;5.43;;;;;;;16.16;48.88;92076.38;4983886;28;20042;-90
2023/04/01 07:37:01;;;;;;;6.07;3.33;;;;;;;16.11;48.76;92075.22;4992719;28;20856;-89
2023/04/01 07:39:38;;;;;;;12.32;4.15;;;;;;;16.06;48.79;92084.97;4984624;28;20052;-90
2023/04/01 07:42:06;;;;;;;12.95;4.53;;;;;;;16.03;48.53;92080.56;4992117;28;20035;-93
2023/04/01 07:44:54;;;;;;;13.30;4.72;;;;;;;16.07;48.64;92077.53;4991977;28;20046;-91
2023/04/01 07:47:52;;;;;;;12.40;4.63;;;;;;;16.08;48.99;92081.72;5004957;28;20038;-93
2023/04/01 07:50:22;;;;;;;15.73;4.60;;;;;;;16.10;48.95;92090.09;4990522;28;20145;-88
2023/04/01 07:52:48;;;;;;;;;;;;;;;16.14;48.69;92076.88;4991738;28;20580;-86
2023/04/01 07:55:28;;;;;;;12.57;4.45;;;;;;;16.13;49.20;92086.31;4989270;28;19929;-86
2023/04/01 07:58:30;;;;;;;12.80;4.85;;;;;;;16.15;49.09;92096.72;4988829;28;20049;-86
2023/04/01 08:01:06;;;;;;;25.15;5.15;;;;;;;16.11;48.82;92097.03;4990281;28;20053;-87
2023/04/01 08:03:43;;;;;;;15.57;4.47;;;;;;;16.13;49.01;92096.50;4989783;28;20271;-87
2023/04/01 08:06:12;;;;;;;11.38;4.28;;;;;;;16.21;48.98;92097.34;4988637;28;20057;-85
2023/04/01 08:08:59;;;;;;;15.45;4.65;;;;;;;16.09;48.68;92094.81;4984887;28;20042;-86
2023/04/01 08:11:33;;;;;;;8.52;4.50;;;;;;;16.08;48.90;92100.81;4988618;28;20445;-91
2023/04/01 08:13:58;;;;;;;16.63;6.22;;;;;;;16.04;48.83;92105.84;4989512;28;20043;-89
2023/04/01 08:16:42;;;;;;;15.40;4.00;;;;;;;16.09;48.57;92111.19;4988669;28;20058;-88
2023/04/01 08:19:28;;;;;;;13.02;4.50;;;;;;;16.08;48.54;92108.97;4984365;28;20125;-88
2023/04/01 08:21:55;;;;;;;20.05;5.32;;;;;;;16.10;48.85;92093.56;4989974;28;20132;-87
2023/04/01 08:24:35;;;;;;;21.27;6.40;;;;;;;16.01;48.66;92110.38;4988519;28;20444;-86
2023/04/01 08:27:03;;;;;;;27.98;8.45;;;;;;;16.07;48.78;92107.50;4988670;28;20043;-87
2023/04/01 08:29:41;;;;;;;37.30;11.25;;;;;;;16.10;48.84;92106.47;4988331;28;20042;-88
2023/04/01 08:32:10;;;;;;;64.70;15.40;;;;;;;16.02;48.79;92103.63;4988925;28;20089;-90
2023/04/01 08:34:42;;;;;;;45.15;14.30;;;;;;;15.99;48.80;92099.25;4987681;28;20035;-88
2023/04/01 08:37:11;;;;;;;62.42;13.68;;;;;;;16.09;48.72;92094.81;4988572;28;20034;-91
2023/04/01 08:39:57;;;;;;;31.73;10.40;;;;;;;16.07;48.53;92102.06;4989063;28;20038;-86
2023/04/01 08:42:27;;;;;;;36.08;9.48;;;;;;;16.13;48.67;92099.22;4988688;28;20065;-87
2023/04/01 08:45:16;;;;;;;39.72;10.10;;;;;;;16.05;48.85;92099.13;4989001;28;20146;-86
2023/04/01 08:48:08;;;;;;;57.17;14.18;;;;;;;16.02;48.63;92102.94;4988704;28;20038;-84
2023/04/01 08:50:59;;;;;;;41.92;12.30;;;;;;;16.01;48.81;92112.38;4985985;28;20039;-84
2023/04/01 08:53:36;;;;;;;35.88;8.73;;;;;;;16.04;48.34;92105.84;4988042;28;20038;-83
2023/04/01 08:56:13;;;;;;;43.92;11.23;;;;;;;16.05;48.94;92110.03;4972208;28;20050;-86
2023/04/01 08:58:55;;;;;;;33.22;11.98;;;;;;;16.02;48.69;92119.28;4988202;28;20074;-87
2023/04/01 09:01:42;;;;;;;43.20;11.90;;;;;;;16.02;48.92;92113.84;4988641;28;20581;-83
2023/04/01 09:04:08;;;;;;;38.08;10.27;;;;;;;16.10;48.71;92112.66;4988690;28;20104;-86
2023/04/01 09:06:47;;;;;;;48.60;11.68;;;;;;;16.06;48.73;92119.69;4988031;28;20054;-84
2023/04/01 09:09:24;;;;;;;37.55;11.63;;;;;;;16.10;48.67;92111.91;4987361;28;20379;-83
2023/04/01 09:12:14;;;;;;;52.75;11.38;;;;;;;16.07;48.80;92112.97;4983337;28;20055;-89
2023/04/01 09:15:17;;;;;;;45.80;11.30;;;;;;;16.05;48.91;92118.22;4983102;28;20146;-89
2023/04/01 09:17:54;;;;;;;44.50;10.35;;;;;;;16.11;48.55;92127.75;4985357;28;20814;-82
2023/04/01 09:20:41;;;;;;;77.78;17.13;;;;;;;16.05;48.96;92126.38;4986226;28;20497;-85
2023/04/01 09:23:15;;;;;;;51.80;11.82;;;;;;;16.05;48.48;92115.47;4988313;28;20130;-85
2023/04/01 09:25:51;;;;;;;47.50;11.23;;;;;;;16.06;48.86;92116.94;4989452;28;20130;-83
2023/04/01 09:28:27;;;;;;;44.88;11.38;;;;;;;16.05;49.03;92107.31;4986725;28;20043;-83
2023/04/01 09:31:21;;;;;;;58.38;10.18;;;;;;;16.05;48.65;92113.50;4972110;28;20050;-84
2023/04/01 09:34:01;;;;;;;38.42;10.27;;;;;;;16.06;48.72;92111.50;4975332;28;20043;-84
2023/04/01 09:36:42;;;;;;;34.15;9.73;;;;;;;16.07;48.71;92123.88;4971355;28;20046;-89
2023/04/01 09:39:36;;;;;;;50.45;13.02;;;;;;;16.11;48.50;92116.84;5003596;28;20047;-86
2023/04/01 09:42:34;;;;;;;52.63;12.85;;;;;;;16.08;48.80;92125.34;4987441;28;20592;-83
2023/04/01 09:45:26;;;;;;;55.75;11.60;;;;;;;16.10;48.56;92136.44;4987860;28;20042;-84
2023/04/01 09:48:05;;;;;;;45.42;10.50;;;;;;;16.03;48.61;92134.34;5004026;28;20042;-86
2023/04/01 09:50:42;;;;;;;46.90;12.35;;;;;;;16.10;48.90;92126.28;4962380;28;20050;-84
2023/04/01 09:53:10;;;;;;;35.15;10.57;;;;;;;16.07;48.49;92129.31;4991155;28;20041;-84
2023/04/01 09:55:57;;;;;;;39.58;10.77;;;;;;;16.08;48.65;92123.34;4987231;28;20539;-83
2023/04/01 09:58:49;;;;;;;43.15;12.07;;;;;;;16.09;48.78;92118.63;4969196;28;20066;-84
2023/04/01 10:01:23;;;;;;;27.83;9.40;;;;;;;16.14;48.66;92125.97;4986630;28;20129;-83
2023/04/01 10:04:10;;;;;;;30.00;9.18;;;;;;;16.11;48.67;92122.28;4975509;28;20050;-87
2023/04/01 10:07:07;;;;;;;31.15;9.80;;;;;;;16.09;48.49;92113.91;4987921;28;20535;-84
2023/04/01 10:09:51;;;;;;;37.60;9.45;;;;;;;16.10;48.51;92123.56;4986531;28;20047;-83
2023/04/01 10:12:41;;;;;;;36.47;9.30;;;;;;;16.16;48.50;92118.00;4987519;28;20046;-85
2023/04/01 10:15:21;;;;;;;26.70;10.20;;;;;;;16.15;48.62;92115.78;4985155;28;20531;-83
2023/04/01 10:18:11;;;;;;;25.48;8.52;;;;;;;16.13;48.35;92110.88;4987127;28;20061;-87
2023/04/01 10:20:53;;;;;;;32.28;9.10;;;;;;;16.16;48.58;92123.44;4983301;28;20057;-83
2023/04/01 10:23:31;;;;;;;25.98;8.27;;;;;;;16.14;48.62;92115.06;4967000;28;20043;-90
2023/04/01 10:26:35;;;;;;;34.90;9.63;;;;;;;16.18;48.66;92115.47;4957902;28;20563;-83
2023/04/01 10:29:31;;;;;;;35.38;9.93;;;;;;;16.13;48.39;92107.41;4967312;28;20517;-86
2023/04/01 10:32:21;;;;;;;33.78;9.82;;;;;;;16.15;48.79;92113.81;4966598;28;20416;-83
2023/04/01 10:34:59;;;;;;;29.25;8.05;;;;;;;16.18;48.54;92104.56;4982715;28;20077;-84
2023/04/01 10:37:49;;;;;;;28.63;7.22;;;;;;;16.17;48.63;92103.09;4967244;28;20034;-83
2023/04/01 10:40:26;;;;;;;30.73;8.30;;;;;;;16.15;48.71;92100.16;4966566;28;20046;-83
2023/04/01 10:43:15;;;;;;;22.85;6.95;;;;;;;16.16;49.06;92092.72;4988400;28;20100;-86
2023/04/01 10:45:53;;;;;;;24.15;8.93;;;;;;;16.11;48.95;92088.84;4982800;28;20038;-89
2023/04/01 10:48:38;;;;;;;29.73;7.78;;;;;;;16.13;48.81;92091.03;4966800;28;20053;-85
2023/04/01 10:51:06;;;;;;;28.63;7.60;;;;;;;16.23;48.48;92103.72;4965579;28;20046;-87
2023/04/01 10:54:15;;;;;;;19.77;5.97;;;;;;;16.19;48.86;92105.31;4966218;28;20038;-85
2023/04/01 10:57:00;;;;;;;25.05;6.65;;;;;;;16.24;48.52;92099.72;4966161;28;20109;-85
2023/04/01 10:59:38;;;;;;;38.97;10.40;;;;;;;16.17;48.55;92102.38;4971821;28;20105;-86
2023/04/01 11:02:21;;;;;;;37.92;10.68;;;;;;;16.13;48.30;92101.94;4977213;28;20522;-86
2023/04/01 11:05:02;;;;;;;32.30;8.93;;;;;;;16.18;48.38;92099.13;4975149;28;20069;-86
2023/04/01 11:07:30;;;;;;;29.77;9.73;;;;;;;16.14;48.59;92087.78;4986955;28;20625;-88
2023/04/01 11:10:21;;;;;;;36.17;10.45;;;;;;;16.18;48.44;92092.94;4968263;28;20571;-87
2023/04/01 11:13:00;;;;;;;41.33;9.88;;;;;;;16.17;48.39;92094.19;4954593;28;20126;-89
2023/04/01 11:15:31;;;;;;;36.75;8.65;;;;;;;16.14;48.08;92087.06;4960296;28;20130;-90
2023/04/01 11:18:23;;;;;;;32.30;9.05;;;;;;;16.19;48.25;92092.41;4947506;29;20047;-89
2023/04/01 11:21:04;;;;;;;26.88;7.88;;;;;;;16.25;48.14;92090.28;4963770;28;20046;-88
2023/04/01 11:23:41;;;;;;;38.92;9.55;;;;;;;16.21;48.45;92098.06;4949036;28;20050;-87
2023/04/01 11:26:31;;;;;;;44.90;9.13;;;;;;;16.23;48.28;92101.00;4964979;28;20421;-88
2023/04/01 11:29:08;;;;;;;29.45;8.73;;;;;;;16.20;48.34;92091.16;4965440;28;20058;-86
2023/04/01 11:31:58;;;;;;;34.15;9.27;;;;;;;16.24;48.65;92086.06;4968916;28;20034;-86
2023/04/01 11:34:56;;;;;;;33.00;10.32;;;;;;;16.19;49.05;92094.41;4949270;28;20106;-91
2023/04/01 11:37:27;;;;;;;33.40;8.73;;;;;;;16.20;49.05;92095.88;4963916;28;20142;-86
2023/04/01 11:40:14;;;;;;;38.67;9.45;;;;;;;16.21;48.71;92098.06;4967616;28;20113;-87
2023/04/01 11:42:51;;;;;;;29.67;9.05;;;;;;;16.20;49.04;92088.41;4949036;28;20058;-86
2023/04/01 11:45:23;;;;;;;35.42;9.90;;;;;;;16.23;49.27;92081.19;4949825;28;20565;-85
2023/04/01 11:48:13;;;;;;;34.95;8.63;;;;;;;16.20;48.85;92080.25;4965782;28;20505;-86
2023/04/01 11:50:46;;;;;;;40.58;9.27;;;;;;;16.23;48.86;92079.19;4961756;28;20050;-86
2023/04/01 11:53:21;;;;;;;25.48;8.65;;;;;;;16.25;48.86;92075.91;4965613;28;20042;-87
2023/04/01 11:56:15;;;;;;;29.52;8.50;;;;;;;16.25;48.83;92076.63;4965437;28;20075;-86
2023/04/01 11:58:47;;;;;;;31.92;10.15;;;;;;;16.26;49.01;92074.66;4963462;28;20051;-87
2023/04/01 12:01:24;;;;;;;30.10;9.32;;;;;;;16.25;48.63;92071.19;4965226;28;20567;-86
2023/04/01 12:04:26;;;;;;;40.05;9.18;;;;;;;16.28;48.51;92072.13;4967222;28;20039;-89
2023/04/01 12:07:19;;;;;;;33.25;9.43;;;;;;;16.27;48.94;92074.13;4949749;28;20429;-86